Search for airport 
image banner adimage banner adimage banner ad
image banner ad

CA56 - Correctional Training Facility

Located in Soledad, United States

ICAO - CA56, IATA -

Data provided by Airmate  

General information

Coordinates: N36°28'6" W121°22'48"
Elevation is 180 feet MSL.
Magnetic variation is 15° East
View others Airports in California

Operational data

Special qualification required
Current time UTC:
Current local time:
Weather at : KSNS - Salinas Muni ( 30 km )
METAR: KSNS 240853Z AUTO 32004KT 10SM OVC018 17/12 A3000 RMK AO2 SLP169 T01670117 58003 TSNO
TAF: KSNS 240533Z 2406/2506 30008KT P6SM OVC025 FM240800 30005KT P6SM OVC016 FM241000 VRB03KT P6SM OVC011 FM241700 29009KT P6SM SKC FM242100 29014KT P6SM SKC FM250300 29008KT P6SM BKN008
View NOTAMs / SUP AIP / TFR affecting this airport [VIEW]
Communications frequencies: [VIEW]

Runways:

Airport contact information

Address: Soledad United States

Satellite view of CA56